CEB961 RPLL-RPMD
Flight info
| Callsign | CEB961 |
|---|---|
| Flight time | N/A |
| Altitude | 37000 |
| Route | IPATA2R IPATA B462 MASBA W9A BN W9 RIMAR RIMAR2R |
| Aircraft | A320/M-SDE3FGHIRWY/LB1 |
Departure
| Time | 2026-05-01 08:51 |
|---|---|
| Airport | Ninoy Aquino International Airport (RPLL) |
Arrival
| Time | N/A |
|---|---|
| Airport | Francisco Bangoy International Airport (RPMD) |
| Time | Latitude | Longitude | Altitude | Speed | Heading |
|---|---|---|---|---|---|
| 2026-05-01 08:15 | 14.52466 | 121.00225 | 69 ft | 0 kts | 265° |
| 2026-05-01 08:28 | 14.52466 | 121.00226 | 69 ft | 0 kts | 265° |
| 2026-05-01 08:33 | 14.52466 | 121.00230 | 69 ft | 3 kts | 265° |
| 2026-05-01 08:34 | 14.52470 | 121.00257 | 69 ft | 4 kts | 259° |
| 2026-05-01 08:34 | 14.52473 | 121.00284 | 69 ft | 4 kts | 283° |
| 2026-05-01 08:34 | 14.52473 | 121.00292 | 69 ft | 4 kts | 315° |
| 2026-05-01 08:34 | 14.52491 | 121.00272 | 69 ft | 4 kts | 313° |
| 2026-05-01 08:35 | 14.52510 | 121.00252 | 69 ft | 4 kts | 316° |
| 2026-05-01 08:35 | 14.52532 | 121.00238 | 69 ft | 4 kts | 345° |
| 2026-05-01 08:35 | 14.52538 | 121.00255 | 69 ft | 4 kts | 81° |
| 2026-05-01 08:35 | 14.52539 | 121.00261 | 69 ft | 0 kts | 86° |
| 2026-05-01 08:37 | 14.52539 | 121.00265 | 60 ft | 2 kts | 86° |
| 2026-05-01 08:38 | 14.52540 | 121.00294 | 62 ft | 6 kts | 88° |
| 2026-05-01 08:38 | 14.52542 | 121.00348 | 61 ft | 8 kts | 87° |
| 2026-05-01 08:38 | 14.52547 | 121.00413 | 69 ft | 10 kts | 86° |
| 2026-05-01 08:38 | 14.52529 | 121.00483 | 69 ft | 11 kts | 131° |
| 2026-05-01 08:39 | 14.52469 | 121.00545 | 64 ft | 13 kts | 135° |
| 2026-05-01 08:39 | 14.52406 | 121.00610 | 59 ft | 14 kts | 135° |
| 2026-05-01 08:39 | 14.52336 | 121.00682 | 65 ft | 15 kts | 135° |
| 2026-05-01 08:39 | 14.52259 | 121.00760 | 69 ft | 15 kts | 136° |
| 2026-05-01 08:40 | 14.52134 | 121.00777 | 66 ft | 10 kts | 144° |
| 2026-05-01 08:40 | 14.52084 | 121.00834 | 63 ft | 12 kts | 130° |
| 2026-05-01 08:40 | 14.52021 | 121.00905 | 63 ft | 15 kts | 135° |
| 2026-05-01 08:41 | 14.51942 | 121.00984 | 59 ft | 16 kts | 136° |
| 2026-05-01 08:41 | 14.51859 | 121.01069 | 66 ft | 17 kts | 134° |
| 2026-05-01 08:41 | 14.51773 | 121.01159 | 66 ft | 18 kts | 135° |
| 2026-05-01 08:41 | 14.51680 | 121.01252 | 63 ft | 19 kts | 135° |
| 2026-05-01 08:42 | 14.51587 | 121.01351 | 65 ft | 20 kts | 134° |
| 2026-05-01 08:42 | 14.51486 | 121.01454 | 68 ft | 21 kts | 136° |
| 2026-05-01 08:42 | 14.51384 | 121.01560 | 68 ft | 21 kts | 134° |
| 2026-05-01 08:42 | 14.51281 | 121.01667 | 65 ft | 21 kts | 135° |
| 2026-05-01 08:43 | 14.51174 | 121.01776 | 67 ft | 22 kts | 135° |
| 2026-05-01 08:43 | 14.51071 | 121.01882 | 62 ft | 15 kts | 134° |
| 2026-05-01 08:43 | 14.51007 | 121.01916 | 69 ft | 9 kts | 203° |
| 2026-05-01 08:43 | 14.50967 | 121.01855 | 69 ft | 11 kts | 242° |
| 2026-05-01 08:44 | 14.50930 | 121.01785 | 68 ft | 11 kts | 240° |
| 2026-05-01 08:44 | 14.50893 | 121.01722 | 61 ft | 10 kts | 239° |
| 2026-05-01 08:44 | 14.50861 | 121.01667 | 64 ft | 8 kts | 239° |
| 2026-05-01 08:44 | 14.50836 | 121.01620 | 63 ft | 7 kts | 240° |
| 2026-05-01 08:45 | 14.50816 | 121.01583 | 68 ft | 5 kts | 240° |
| 2026-05-01 08:45 | 14.50781 | 121.01520 | 60 ft | 15 kts | 240° |
| 2026-05-01 08:45 | 14.50724 | 121.01418 | 60 ft | 16 kts | 240° |
| 2026-05-01 08:45 | 14.50668 | 121.01318 | 62 ft | 16 kts | 239° |
| 2026-05-01 08:46 | 14.50616 | 121.01226 | 63 ft | 14 kts | 239° |
| 2026-05-01 08:46 | 14.50570 | 121.01144 | 60 ft | 12 kts | 240° |
| 2026-05-01 08:46 | 14.50531 | 121.01074 | 63 ft | 10 kts | 240° |
| 2026-05-01 08:46 | 14.50490 | 121.00999 | 66 ft | 14 kts | 240° |
| 2026-05-01 08:47 | 14.50436 | 121.00902 | 69 ft | 18 kts | 240° |
| 2026-05-01 08:47 | 14.50372 | 121.00788 | 65 ft | 19 kts | 240° |
| 2026-05-01 08:47 | 14.50306 | 121.00666 | 61 ft | 20 kts | 240° |
| 2026-05-01 08:47 | 14.50235 | 121.00538 | 61 ft | 21 kts | 240° |
| 2026-05-01 08:48 | 14.50159 | 121.00402 | 68 ft | 22 kts | 241° |
| 2026-05-01 08:48 | 14.50081 | 121.00260 | 68 ft | 23 kts | 240° |
| 2026-05-01 08:48 | 14.49998 | 121.00113 | 69 ft | 24 kts | 240° |
| 2026-05-01 08:48 | 14.49935 | 121.00004 | 65 ft | 10 kts | 239° |
| 2026-05-01 08:49 | 14.49895 | 120.99956 | 65 ft | 8 kts | 194° |
| 2026-05-01 08:49 | 14.49856 | 120.99976 | 69 ft | 5 kts | 147° |
| 2026-05-01 08:49 | 14.49823 | 120.99999 | 67 ft | 8 kts | 143° |
| 2026-05-01 08:49 | 14.49810 | 121.00049 | 62 ft | 9 kts | 71° |
| 2026-05-01 08:50 | 14.49897 | 121.00210 | 68 ft | 56 kts | 60° |
| 2026-05-01 08:50 | 14.50202 | 121.00758 | 68 ft | 118 kts | 60° |
| 2026-05-01 08:50 | 14.50698 | 121.01652 | 69 ft | 167 kts | 60° |
| 2026-05-01 08:50 | 14.51291 | 121.02728 | 534 ft | 173 kts | 62° |
| 2026-05-01 08:51 | 14.51893 | 121.03802 | 1241 ft | 173 kts | 62° |
| 2026-05-01 08:51 | 14.52497 | 121.04870 | 1912 ft | 173 kts | 63° |
| 2026-05-01 08:51 | 14.53108 | 121.05977 | 2232 ft | 189 kts | 63° |
| 2026-05-01 08:51 | 14.53797 | 121.07225 | 2423 ft | 212 kts | 62° |
| 2026-05-01 08:52 | 14.54570 | 121.08623 | 2622 ft | 236 kts | 62° |
| 2026-05-01 08:52 | 14.55427 | 121.10169 | 2974 ft | 256 kts | 61° |
| 2026-05-01 08:52 | 14.56324 | 121.11793 | 3662 ft | 263 kts | 61° |
| 2026-05-01 08:52 | 14.57107 | 121.13506 | 4411 ft | 266 kts | 73° |
| 2026-05-01 08:53 | 14.57363 | 121.15399 | 5134 ft | 270 kts | 95° |
| 2026-05-01 08:53 | 14.56852 | 121.17257 | 5865 ft | 273 kts | 119° |
| 2026-05-01 08:53 | 14.55614 | 121.18754 | 6583 ft | 277 kts | 137° |
| 2026-05-01 08:53 | 14.54163 | 121.20076 | 7325 ft | 280 kts | 138° |
| 2026-05-01 08:54 | 14.52687 | 121.21404 | 8043 ft | 283 kts | 138° |
| 2026-05-01 08:54 | 14.51195 | 121.22748 | 8729 ft | 286 kts | 137° |
| 2026-05-01 08:54 | 14.49691 | 121.24111 | 9399 ft | 290 kts | 137° |
| 2026-05-01 08:54 | 14.48171 | 121.25493 | 10040 ft | 293 kts | 137° |
| 2026-05-01 08:55 | 14.46608 | 121.26918 | 10356 ft | 310 kts | 137° |
| 2026-05-01 08:55 | 14.44935 | 121.28442 | 10490 ft | 331 kts | 137° |
| 2026-05-01 08:55 | 14.43156 | 121.30058 | 10715 ft | 348 kts | 137° |
| 2026-05-01 08:55 | 14.41323 | 121.31721 | 11221 ft | 354 kts | 137° |
| 2026-05-01 08:56 | 14.39490 | 121.33386 | 11804 ft | 357 kts | 137° |
| 2026-05-01 08:56 | 14.37594 | 121.35110 | 12396 ft | 361 kts | 137° |
| 2026-05-01 08:56 | 14.35728 | 121.36804 | 12988 ft | 364 kts | 137° |
| 2026-05-01 08:56 | 14.33821 | 121.38535 | 13563 ft | 367 kts | 137° |
| 2026-05-01 08:57 | 14.31898 | 121.40281 | 14122 ft | 370 kts | 137° |
| 2026-05-01 08:57 | 14.29960 | 121.42041 | 14672 ft | 372 kts | 137° |
| 2026-05-01 08:57 | 14.28011 | 121.43812 | 15203 ft | 375 kts | 137° |
| 2026-05-01 08:57 | 14.26047 | 121.45598 | 15729 ft | 378 kts | 137° |
| 2026-05-01 08:58 | 14.24069 | 121.47398 | 16232 ft | 380 kts | 137° |
| 2026-05-01 08:58 | 14.22078 | 121.49207 | 16729 ft | 383 kts | 137° |
| 2026-05-01 08:58 | 14.20074 | 121.51027 | 17218 ft | 386 kts | 137° |
| 2026-05-01 08:58 | 14.18054 | 121.52860 | 17703 ft | 388 kts | 137° |
| 2026-05-01 08:59 | 14.16020 | 121.54707 | 18178 ft | 391 kts | 137° |
| 2026-05-01 08:59 | 14.13970 | 121.56566 | 18649 ft | 394 kts | 137° |
| 2026-05-01 08:59 | 14.11905 | 121.58436 | 19096 ft | 397 kts | 137° |
| 2026-05-01 08:59 | 14.09827 | 121.60315 | 19536 ft | 400 kts | 137° |
| 2026-05-01 09:00 | 14.07725 | 121.62216 | 19962 ft | 403 kts | 138° |
| 2026-05-01 09:00 | 14.05612 | 121.64128 | 20380 ft | 406 kts | 138° |
| 2026-05-01 09:00 | 14.03478 | 121.66060 | 20796 ft | 409 kts | 138° |
| 2026-05-01 09:00 | 14.01336 | 121.67998 | 21211 ft | 412 kts | 138° |
| 2026-05-01 09:01 | 13.99172 | 121.69954 | 21601 ft | 415 kts | 138° |
| 2026-05-01 09:01 | 13.96995 | 121.71923 | 21968 ft | 418 kts | 138° |
| 2026-05-01 09:01 | 13.94799 | 121.73911 | 22323 ft | 421 kts | 138° |
| 2026-05-01 09:01 | 13.92599 | 121.75902 | 22679 ft | 423 kts | 138° |
| 2026-05-01 09:02 | 13.90379 | 121.77910 | 23010 ft | 426 kts | 138° |
| 2026-05-01 09:02 | 13.88144 | 121.79928 | 23344 ft | 428 kts | 138° |
| 2026-05-01 09:02 | 13.86020 | 121.82037 | 23645 ft | 430 kts | 130° |
| 2026-05-01 09:02 | 13.84072 | 121.84431 | 23947 ft | 433 kts | 129° |
| 2026-05-01 09:03 | 13.82160 | 121.86784 | 24246 ft | 435 kts | 129° |
| 2026-05-01 09:03 | 13.80203 | 121.89181 | 24547 ft | 438 kts | 130° |
| 2026-05-01 09:03 | 13.78242 | 121.91578 | 24834 ft | 440 kts | 130° |
| 2026-05-01 09:03 | 13.76263 | 121.93996 | 25129 ft | 442 kts | 130° |
| 2026-05-01 09:04 | 13.74279 | 121.96417 | 25412 ft | 443 kts | 130° |
| 2026-05-01 09:04 | 13.72291 | 121.98843 | 25670 ft | 446 kts | 130° |
| 2026-05-01 09:04 | 13.70290 | 122.01287 | 25933 ft | 447 kts | 130° |
| 2026-05-01 09:04 | 13.68283 | 122.03747 | 26204 ft | 449 kts | 130° |
| 2026-05-01 09:05 | 13.66274 | 122.06213 | 26467 ft | 451 kts | 130° |
| 2026-05-01 09:05 | 13.64252 | 122.08691 | 26716 ft | 453 kts | 130° |
| 2026-05-01 09:05 | 13.62223 | 122.11176 | 26964 ft | 454 kts | 130° |
| 2026-05-01 09:05 | 13.60208 | 122.13642 | 27199 ft | 456 kts | 130° |
| 2026-05-01 09:06 | 13.58163 | 122.16143 | 27439 ft | 458 kts | 130° |
| 2026-05-01 09:06 | 13.56113 | 122.18649 | 27673 ft | 459 kts | 130° |
| 2026-05-01 09:06 | 13.54050 | 122.21164 | 27897 ft | 461 kts | 130° |
| 2026-05-01 09:06 | 13.51978 | 122.23685 | 28125 ft | 462 kts | 130° |
| 2026-05-01 09:07 | 13.49902 | 122.26214 | 28342 ft | 464 kts | 130° |
| 2026-05-01 09:07 | 13.47821 | 122.28754 | 28552 ft | 465 kts | 130° |
| 2026-05-01 09:07 | 13.45736 | 122.31304 | 28756 ft | 467 kts | 130° |
| 2026-05-01 09:07 | 13.43646 | 122.33861 | 28963 ft | 468 kts | 130° |
| 2026-05-01 09:08 | 13.41547 | 122.36423 | 29151 ft | 469 kts | 130° |
| 2026-05-01 09:08 | 13.39439 | 122.38989 | 29340 ft | 470 kts | 130° |
| 2026-05-01 09:08 | 13.37325 | 122.41560 | 29515 ft | 471 kts | 130° |
| 2026-05-01 09:08 | 13.35210 | 122.44132 | 29685 ft | 473 kts | 130° |
| 2026-05-01 09:09 | 13.33087 | 122.46716 | 29856 ft | 474 kts | 131° |
| 2026-05-01 09:09 | 13.30960 | 122.49306 | 30034 ft | 475 kts | 131° |
| 2026-05-01 09:09 | 13.28833 | 122.51896 | 30281 ft | 474 kts | 131° |
| 2026-05-01 09:09 | 13.26709 | 122.54481 | 30539 ft | 472 kts | 131° |
| 2026-05-01 09:10 | 13.24596 | 122.57053 | 30778 ft | 472 kts | 131° |
| 2026-05-01 09:10 | 13.22478 | 122.59630 | 31023 ft | 471 kts | 131° |
| 2026-05-01 09:10 | 13.20368 | 122.62195 | 31262 ft | 470 kts | 131° |
| 2026-05-01 09:10 | 13.18262 | 122.64757 | 31504 ft | 469 kts | 131° |
| 2026-05-01 09:11 | 13.16160 | 122.67313 | 31750 ft | 468 kts | 131° |
| 2026-05-01 09:11 | 13.14061 | 122.69863 | 31998 ft | 467 kts | 131° |
| 2026-05-01 09:11 | 13.11969 | 122.72398 | 32234 ft | 466 kts | 131° |
| 2026-05-01 09:11 | 13.09878 | 122.74936 | 32467 ft | 465 kts | 131° |
| 2026-05-01 09:12 | 13.07791 | 122.77469 | 32700 ft | 464 kts | 131° |
| 2026-05-01 09:12 | 13.05705 | 122.79997 | 32928 ft | 464 kts | 131° |
| 2026-05-01 09:12 | 13.03622 | 122.82521 | 33166 ft | 463 kts | 131° |
| 2026-05-01 09:12 | 13.01540 | 122.85047 | 33384 ft | 462 kts | 131° |
| 2026-05-01 09:13 | 12.99492 | 122.87531 | 33613 ft | 462 kts | 131° |
| 2026-05-01 09:13 | 12.97417 | 122.90042 | 33838 ft | 461 kts | 132° |
| 2026-05-01 09:13 | 12.95343 | 122.92550 | 34069 ft | 461 kts | 132° |
| 2026-05-01 09:13 | 12.93272 | 122.95053 | 34301 ft | 460 kts | 132° |
| 2026-05-01 09:14 | 12.91207 | 122.97554 | 34515 ft | 459 kts | 131° |
| 2026-05-01 09:14 | 12.89146 | 123.00054 | 34713 ft | 459 kts | 131° |
| 2026-05-01 09:14 | 12.87087 | 123.02553 | 34898 ft | 459 kts | 131° |
| 2026-05-01 09:14 | 12.85031 | 123.05044 | 35081 ft | 458 kts | 131° |
| 2026-05-01 09:15 | 12.82969 | 123.07539 | 35276 ft | 458 kts | 131° |
| 2026-05-01 09:15 | 12.80911 | 123.10029 | 35431 ft | 458 kts | 131° |
| 2026-05-01 09:15 | 12.78848 | 123.12523 | 35599 ft | 457 kts | 131° |
| 2026-05-01 09:15 | 12.76794 | 123.15003 | 35763 ft | 457 kts | 132° |
| 2026-05-01 09:16 | 12.74738 | 123.17485 | 35931 ft | 457 kts | 132° |
| 2026-05-01 09:16 | 12.72685 | 123.19964 | 36083 ft | 456 kts | 131° |
| 2026-05-01 09:16 | 12.70635 | 123.22440 | 36219 ft | 456 kts | 131° |
| 2026-05-01 09:17 | 12.66534 | 123.27390 | 36481 ft | 456 kts | 132° |
| 2026-05-01 09:17 | 12.64482 | 123.29863 | 36607 ft | 455 kts | 132° |
| 2026-05-01 09:17 | 12.60400 | 123.34781 | 36861 ft | 450 kts | 132° |
| 2026-05-01 09:18 | 12.54385 | 123.42036 | 36872 ft | 446 kts | 132° |
| 2026-05-01 09:19 | 12.48358 | 123.49290 | 36878 ft | 446 kts | 132° |
| 2026-05-01 09:20 | 12.42335 | 123.56533 | 36880 ft | 445 kts | 132° |
| 2026-05-01 09:20 | 12.37505 | 123.60356 | 36884 ft | 440 kts | 152° |
| 2026-05-01 09:21 | 12.32148 | 123.63403 | 36881 ft | 441 kts | 152° |
| 2026-05-01 09:21 | 12.24083 | 123.67949 | 36883 ft | 441 kts | 152° |
| 2026-05-01 09:22 | 12.14249 | 123.73502 | 36883 ft | 441 kts | 152° |
| 2026-05-01 09:23 | 12.06200 | 123.78055 | 36883 ft | 441 kts | 152° |
| 2026-05-01 09:24 | 11.98138 | 123.82591 | 36887 ft | 441 kts | 152° |
| 2026-05-01 09:25 | 11.87390 | 123.88660 | 36890 ft | 441 kts | 152° |
| 2026-05-01 09:26 | 11.79315 | 123.93200 | 36892 ft | 442 kts | 152° |
| 2026-05-01 09:26 | 11.71250 | 123.97750 | 36893 ft | 441 kts | 152° |
| 2026-05-01 09:27 | 11.63183 | 124.02292 | 36892 ft | 441 kts | 152° |
| 2026-05-01 09:28 | 11.57800 | 124.05313 | 36886 ft | 441 kts | 152° |
| 2026-05-01 09:28 | 11.52457 | 124.08312 | 36897 ft | 441 kts | 152° |
| 2026-05-01 09:29 | 11.44401 | 124.12847 | 36891 ft | 440 kts | 152° |
| 2026-05-01 09:30 | 11.36349 | 124.17366 | 36888 ft | 440 kts | 152° |
| 2026-05-01 09:30 | 11.28296 | 124.21883 | 36882 ft | 440 kts | 152° |
| 2026-05-01 09:31 | 11.22926 | 124.24891 | 36882 ft | 441 kts | 152° |
| 2026-05-01 09:32 | 11.14864 | 124.29413 | 36881 ft | 441 kts | 152° |
| 2026-05-01 09:32 | 11.06806 | 124.33924 | 36881 ft | 440 kts | 152° |
| 2026-05-01 09:33 | 11.01429 | 124.36935 | 36883 ft | 441 kts | 152° |
| 2026-05-01 09:34 | 10.93376 | 124.41434 | 36885 ft | 440 kts | 152° |
| 2026-05-01 09:34 | 10.85318 | 124.45940 | 36886 ft | 440 kts | 151° |
| 2026-05-01 09:35 | 10.77268 | 124.50440 | 36885 ft | 440 kts | 151° |
| 2026-05-01 09:36 | 10.71876 | 124.53401 | 36883 ft | 440 kts | 152° |
| 2026-05-01 09:36 | 10.66473 | 124.56309 | 36882 ft | 440 kts | 152° |
| 2026-05-01 09:37 | 10.61074 | 124.59226 | 36881 ft | 439 kts | 152° |
| 2026-05-01 09:37 | 10.52988 | 124.63626 | 36878 ft | 439 kts | 152° |
| 2026-05-01 09:38 | 10.44924 | 124.67987 | 36878 ft | 439 kts | 152° |
| 2026-05-01 09:39 | 10.36835 | 124.72367 | 36878 ft | 439 kts | 152° |
| 2026-05-01 09:39 | 10.31434 | 124.75300 | 36873 ft | 439 kts | 152° |
| 2026-05-01 09:40 | 10.23342 | 124.79686 | 36872 ft | 439 kts | 152° |
| 2026-05-01 09:41 | 10.17947 | 124.82604 | 36869 ft | 439 kts | 152° |
| 2026-05-01 09:41 | 10.09856 | 124.86975 | 36865 ft | 439 kts | 152° |
| 2026-05-01 09:42 | 10.04457 | 124.89895 | 36871 ft | 440 kts | 152° |
| 2026-05-01 09:43 | 9.93648 | 124.95735 | 36874 ft | 440 kts | 151° |
| 2026-05-01 09:43 | 9.88249 | 124.98651 | 36872 ft | 439 kts | 151° |
| 2026-05-01 09:44 | 9.80157 | 125.03028 | 36872 ft | 439 kts | 151° |
| 2026-05-01 09:45 | 9.74754 | 125.05943 | 36872 ft | 439 kts | 151° |
| 2026-05-01 09:45 | 9.66649 | 125.10299 | 36870 ft | 439 kts | 151° |
| 2026-05-01 09:46 | 9.61248 | 125.13205 | 36869 ft | 439 kts | 151° |
| 2026-05-01 09:46 | 9.55848 | 125.16106 | 36868 ft | 439 kts | 152° |
| 2026-05-01 09:47 | 9.50435 | 125.18990 | 36868 ft | 440 kts | 152° |
| 2026-05-01 09:47 | 9.45021 | 125.21871 | 36868 ft | 439 kts | 152° |
| 2026-05-01 09:48 | 9.39605 | 125.24755 | 36867 ft | 439 kts | 152° |
| 2026-05-01 09:48 | 9.34196 | 125.27634 | 36867 ft | 440 kts | 152° |
| 2026-05-01 09:49 | 9.28781 | 125.30521 | 36869 ft | 440 kts | 151° |
| 2026-05-01 09:49 | 9.23364 | 125.33405 | 36872 ft | 440 kts | 152° |
| 2026-05-01 09:50 | 9.17943 | 125.36287 | 36874 ft | 440 kts | 151° |
| 2026-05-01 09:50 | 9.12557 | 125.39156 | 36874 ft | 440 kts | 151° |
| 2026-05-01 09:51 | 9.07144 | 125.42033 | 36874 ft | 440 kts | 152° |
| 2026-05-01 09:51 | 9.01728 | 125.44903 | 36874 ft | 439 kts | 152° |
| 2026-05-01 09:52 | 8.96246 | 125.47644 | 36869 ft | 440 kts | 159° |
| 2026-05-01 09:52 | 8.90253 | 125.48885 | 36870 ft | 442 kts | 173° |
| 2026-05-01 09:53 | 8.84132 | 125.49496 | 36865 ft | 442 kts | 173° |
| 2026-05-01 09:53 | 8.78006 | 125.50116 | 36779 ft | 444 kts | 173° |
| 2026-05-01 09:54 | 8.74936 | 125.50428 | 36522 ft | 443 kts | 173° |
| 2026-05-01 09:54 | 8.71866 | 125.50742 | 36160 ft | 443 kts | 173° |
| 2026-05-01 09:54 | 8.68787 | 125.51056 | 35430 ft | 445 kts | 173° |
| 2026-05-01 09:54 | 8.65700 | 125.51371 | 34595 ft | 448 kts | 173° |
| 2026-05-01 09:55 | 8.62581 | 125.51689 | 33700 ft | 453 kts | 173° |
| 2026-05-01 09:55 | 8.59431 | 125.52010 | 32771 ft | 457 kts | 173° |
| 2026-05-01 09:55 | 8.56255 | 125.52332 | 31811 ft | 461 kts | 173° |
| 2026-05-01 09:55 | 8.53049 | 125.52658 | 30918 ft | 463 kts | 172° |
| 2026-05-01 09:56 | 8.49865 | 125.52972 | 30387 ft | 457 kts | 173° |
| 2026-05-01 09:56 | 8.46711 | 125.53260 | 29731 ft | 453 kts | 173° |
| 2026-05-01 09:56 | 8.43577 | 125.53532 | 29103 ft | 450 kts | 173° |
| 2026-05-01 09:56 | 8.40476 | 125.53796 | 28484 ft | 446 kts | 173° |
| 2026-05-01 09:57 | 8.37386 | 125.54063 | 27874 ft | 443 kts | 173° |
| 2026-05-01 09:57 | 8.34325 | 125.54333 | 27266 ft | 440 kts | 173° |
| 2026-05-01 09:57 | 8.31288 | 125.54606 | 26669 ft | 437 kts | 173° |
| 2026-05-01 09:57 | 8.28264 | 125.54880 | 26074 ft | 434 kts | 173° |
| 2026-05-01 09:58 | 8.25267 | 125.55150 | 25496 ft | 431 kts | 173° |
| 2026-05-01 09:58 | 8.22300 | 125.55415 | 24924 ft | 427 kts | 173° |
| 2026-05-01 09:58 | 8.19348 | 125.55678 | 24362 ft | 424 kts | 173° |
| 2026-05-01 09:58 | 8.16420 | 125.55939 | 23830 ft | 421 kts | 173° |
| 2026-05-01 09:59 | 8.13553 | 125.56196 | 23304 ft | 417 kts | 173° |
| 2026-05-01 09:59 | 8.10675 | 125.56454 | 22803 ft | 414 kts | 173° |
| 2026-05-01 09:59 | 8.07817 | 125.56710 | 22301 ft | 411 kts | 173° |
| 2026-05-01 09:59 | 8.04973 | 125.56966 | 21819 ft | 408 kts | 173° |
| 2026-05-01 10:00 | 8.02156 | 125.57219 | 21337 ft | 405 kts | 173° |
| 2026-05-01 10:00 | 7.99358 | 125.57467 | 20856 ft | 402 kts | 174° |
| 2026-05-01 10:00 | 7.96568 | 125.57410 | 20375 ft | 402 kts | 185° |
| 2026-05-01 10:00 | 7.93842 | 125.56823 | 19878 ft | 401 kts | 195° |
| 2026-05-01 10:01 | 7.91175 | 125.56027 | 19377 ft | 398 kts | 195° |
| 2026-05-01 10:01 | 7.88521 | 125.55240 | 18873 ft | 397 kts | 195° |
| 2026-05-01 10:01 | 7.85879 | 125.54462 | 18367 ft | 395 kts | 195° |
| 2026-05-01 10:01 | 7.83247 | 125.53691 | 17855 ft | 393 kts | 195° |
| 2026-05-01 10:02 | 7.80629 | 125.52926 | 17346 ft | 390 kts | 195° |
| 2026-05-01 10:02 | 7.78029 | 125.52166 | 16839 ft | 388 kts | 195° |
| 2026-05-01 10:02 | 7.75441 | 125.51408 | 16336 ft | 386 kts | 195° |
| 2026-05-01 10:02 | 7.72872 | 125.50654 | 15836 ft | 384 kts | 195° |
| 2026-05-01 10:03 | 7.70314 | 125.49903 | 15344 ft | 382 kts | 195° |
| 2026-05-01 10:03 | 7.67767 | 125.49155 | 14841 ft | 380 kts | 195° |
| 2026-05-01 10:03 | 7.65236 | 125.48414 | 14345 ft | 378 kts | 195° |
| 2026-05-01 10:03 | 7.62717 | 125.47678 | 13864 ft | 375 kts | 195° |
| 2026-05-01 10:04 | 7.60214 | 125.46944 | 13373 ft | 375 kts | 195° |
| 2026-05-01 10:04 | 7.58556 | 125.46456 | 13111 ft | 373 kts | 195° |
| 2026-05-01 10:04 | 7.55261 | 125.45483 | 12525 ft | 367 kts | 195° |
| 2026-05-01 10:04 | 7.53640 | 125.45005 | 12186 ft | 366 kts | 195° |
| 2026-05-01 10:05 | 7.51206 | 125.44295 | 11676 ft | 363 kts | 195° |
| 2026-05-01 10:05 | 7.48789 | 125.43591 | 11162 ft | 361 kts | 195° |
| 2026-05-01 10:05 | 7.47971 | 125.43353 | 10976 ft | 360 kts | 195° |